createdAt,value
2017-07-15T00:00:34.961Z,821.04
2017-07-15T00:01:35.578Z,821.05
2017-07-15T00:02:36.194Z,821.02
2017-07-15T00:03:36.814Z,821.06
2017-07-15T00:04:37.432Z,821.02
2017-07-15T00:05:38.094Z,821.03
2017-07-15T00:06:38.710Z,821.00
2017-07-15T00:07:39.350Z,821.00
2017-07-15T00:08:39.960Z,821.00
2017-07-15T00:09:40.570Z,820.97
2017-07-15T00:10:41.236Z,821.02
2017-07-15T00:11:41.854Z,820.98
2017-07-15T00:12:42.467Z,821.00
2017-07-15T00:13:43.082Z,820.99
2017-07-15T00:14:43.722Z,820.97
2017-07-15T00:15:44.377Z,820.98
2017-07-15T00:16:44.988Z,820.97
2017-07-15T00:17:45.603Z,820.98
2017-07-15T00:18:46.241Z,820.97
2017-07-15T00:19:46.845Z,820.96
2017-07-15T00:20:47.511Z,820.97
2017-07-15T00:21:48.164Z,820.98
2017-07-15T00:22:48.777Z,820.95
2017-07-15T00:23:49.395Z,820.96
2017-07-15T00:24:50.009Z,820.96
2017-07-15T00:25:50.673Z,820.98
2017-07-15T00:26:51.289Z,820.95
2017-07-15T00:27:51.931Z,820.98
2017-07-15T00:28:52.558Z,821.00
2017-07-15T00:29:53.149Z,821.03
2017-07-15T00:30:53.820Z,820.99
2017-07-15T00:31:54.433Z,821.00
2017-07-15T00:32:55.051Z,820.96
2017-07-15T00:33:55.665Z,820.97
2017-07-15T00:34:56.281Z,820.98
2017-07-15T00:35:56.951Z,821.04
2017-07-15T00:36:57.565Z,821.00
2017-07-15T00:37:58.181Z,821.00
2017-07-15T00:38:58.801Z,821.01
2017-07-15T00:39:59.413Z,820.98
2017-07-15T00:41:00.138Z,820.98
2017-07-15T00:42:00.744Z,821.00
2017-07-15T00:43:01.356Z,821.03
2017-07-15T00:44:01.972Z,821.02
2017-07-15T00:45:02.586Z,821.00
2017-07-15T00:46:03.251Z,820.99
2017-07-15T00:47:03.900Z,820.99
2017-07-15T00:48:04.517Z,820.95
2017-07-15T00:49:05.132Z,820.98
2017-07-15T00:50:05.747Z,820.94
2017-07-15T00:51:06.412Z,820.96
2017-07-15T00:52:07.026Z,820.93
2017-07-15T00:53:07.644Z,820.95
2017-07-15T00:54:08.261Z,820.97
2017-07-15T00:55:08.877Z,820.88
2017-07-15T00:56:09.542Z,820.91
2017-07-15T00:57:10.158Z,820.93
2017-07-15T00:58:10.774Z,820.91
2017-07-15T00:59:11.388Z,820.89
2017-07-15T01:00:12.009Z,820.85
2017-07-15T01:01:12.670Z,820.87
2017-07-15T01:02:13.290Z,820.85
2017-07-15T01:03:13.904Z,820.83
2017-07-15T01:04:14.518Z,820.81
2017-07-15T01:05:15.133Z,820.81
2017-07-15T01:06:15.798Z,820.83
2017-07-15T01:07:16.412Z,820.79
2017-07-15T01:08:17.029Z,820.79
2017-07-15T01:09:17.644Z,820.81
2017-07-15T01:10:18.269Z,820.77
2017-07-15T01:11:18.929Z,820.78
2017-07-15T01:12:19.546Z,820.77
2017-07-15T01:13:20.161Z,820.75
2017-07-15T01:14:20.775Z,820.77
2017-07-15T01:15:21.390Z,820.78
2017-07-15T01:16:22.072Z,820.77
2017-07-15T01:17:22.684Z,820.79
2017-07-15T01:18:23.332Z,820.74
2017-07-15T01:19:23.946Z,820.75
2017-07-15T01:20:24.621Z,820.76
2017-07-15T01:21:25.273Z,820.73
2017-07-15T01:22:25.892Z,820.73
2017-07-15T01:23:26.528Z,820.72
2017-07-15T01:24:27.130Z,820.71
2017-07-15T01:25:27.745Z,820.72
2017-07-15T01:26:28.413Z,820.68
2017-07-15T01:27:29.027Z,820.70
2017-07-15T01:28:29.668Z,820.72
2017-07-15T01:29:30.269Z,820.72
2017-07-15T01:30:30.916Z,820.75
2017-07-15T01:31:31.613Z,820.75
2017-07-15T01:32:32.231Z,820.75
2017-07-15T01:33:32.846Z,820.72
2017-07-15T01:34:33.495Z,820.76
2017-07-15T01:35:34.145Z,820.76
2017-07-15T01:36:34.813Z,820.80
2017-07-15T01:37:35.424Z,820.76
2017-07-15T01:38:36.037Z,820.79
2017-07-15T01:39:36.652Z,820.75
2017-07-15T01:40:37.273Z,820.80
2017-07-15T01:41:37.935Z,820.77
2017-07-15T01:42:38.555Z,820.71
2017-07-15T01:43:39.167Z,820.72
2017-07-15T01:44:39.782Z,820.70
2017-07-15T01:45:40.398Z,820.72
2017-07-15T01:46:41.103Z,820.74
2017-07-15T01:47:41.715Z,820.76
2017-07-15T01:48:42.334Z,820.79
2017-07-15T01:49:42.971Z,820.77
2017-07-15T01:50:43.575Z,820.70
2017-07-15T01:51:44.237Z,820.73
2017-07-15T01:52:44.851Z,820.79
2017-07-15T01:53:45.465Z,820.78
2017-07-15T01:54:46.114Z,820.79
2017-07-15T01:55:46.713Z,820.79
2017-07-15T01:56:47.377Z,820.77
2017-07-15T01:57:47.994Z,820.78
2017-07-15T01:58:48.609Z,820.78
2017-07-15T01:59:49.251Z,820.78
2017-07-15T02:00:49.855Z,820.81
2017-07-15T02:01:50.547Z,820.81
2017-07-15T02:02:51.146Z,820.83
2017-07-15T02:03:51.774Z,820.84
2017-07-15T02:04:52.384Z,820.84
2017-07-15T02:05:52.994Z,820.80
2017-07-15T02:06:53.662Z,820.82
2017-07-15T02:07:54.283Z,820.83
2017-07-15T02:08:54.893Z,820.75
2017-07-15T02:09:55.547Z,820.77
2017-07-15T02:10:56.160Z,820.76
2017-07-15T02:11:56.830Z,820.74
2017-07-15T02:12:57.441Z,820.74
2017-07-15T02:13:58.095Z,820.75
2017-07-15T02:14:58.707Z,820.75
2017-07-15T02:15:59.322Z,820.71
2017-07-15T02:16:59.992Z,820.75
2017-07-15T02:18:00.601Z,820.72
2017-07-15T02:19:01.222Z,820.71
2017-07-15T02:20:01.834Z,820.70
2017-07-15T02:21:02.476Z,820.71
2017-07-15T02:22:03.127Z,820.72
2017-07-15T02:23:03.765Z,820.66
2017-07-15T02:24:04.455Z,820.68
2017-07-15T02:25:05.044Z,820.63
2017-07-15T02:26:05.659Z,820.67
2017-07-15T02:27:06.325Z,820.63
2017-07-15T02:28:06.965Z,820.64
2017-07-15T02:29:07.569Z,820.62
2017-07-15T02:30:08.206Z,820.62
2017-07-15T02:31:08.808Z,820.65
2017-07-15T02:32:09.473Z,820.58
2017-07-15T02:33:10.088Z,820.61
2017-07-15T02:34:10.710Z,820.60
2017-07-15T02:35:11.321Z,820.59
2017-07-15T02:36:11.935Z,820.60
2017-07-15T02:37:12.602Z,820.61
2017-07-15T02:38:13.222Z,820.62
2017-07-15T02:39:13.871Z,820.60
2017-07-15T02:40:14.487Z,820.57
2017-07-15T02:41:15.137Z,820.58
2017-07-15T02:42:15.807Z,820.56
2017-07-15T02:43:16.418Z,820.57
2017-07-15T02:44:17.033Z,820.61
2017-07-15T02:45:17.649Z,820.59
2017-07-15T02:46:18.265Z,820.56
2017-07-15T02:47:18.930Z,820.56
2017-07-15T02:48:19.576Z,820.57
2017-07-15T02:49:20.192Z,820.59
2017-07-15T02:50:20.806Z,820.57
2017-07-15T02:51:21.452Z,820.56
2017-07-15T02:52:22.155Z,820.61
2017-07-15T02:53:22.767Z,820.59
2017-07-15T02:54:23.382Z,820.57
2017-07-15T02:55:23.997Z,820.53
2017-07-15T02:56:24.612Z,820.58
2017-07-15T02:57:25.309Z,820.59
2017-07-15T02:58:25.935Z,820.52
2017-07-15T02:59:26.567Z,820.56
2017-07-15T03:00:27.240Z,820.55
2017-07-15T03:01:27.840Z,820.51
2017-07-15T03:02:28.504Z,820.53
2017-07-15T03:03:29.120Z,820.54
2017-07-15T03:04:29.739Z,820.55
2017-07-15T03:05:30.353Z,820.52
2017-07-15T03:06:30.968Z,820.54
2017-07-15T03:07:31.634Z,820.56
2017-07-15T03:08:32.248Z,820.55
2017-07-15T03:09:32.862Z,820.54
2017-07-15T03:10:33.478Z,820.52
2017-07-15T03:11:34.092Z,820.52
2017-07-15T03:12:34.756Z,820.54
2017-07-15T03:13:35.403Z,820.55
2017-07-15T03:14:36.000Z,820.60
2017-07-15T03:15:36.614Z,820.59
2017-07-15T03:16:37.232Z,820.55
2017-07-15T03:17:37.898Z,820.58
2017-07-15T03:18:38.520Z,820.56
2017-07-15T03:19:39.125Z,820.57
2017-07-15T03:20:39.740Z,820.58
2017-07-15T03:21:40.358Z,820.60
2017-07-15T03:22:41.028Z,820.58
2017-07-15T03:23:41.645Z,820.58
2017-07-15T03:24:42.291Z,820.59
2017-07-15T03:25:42.905Z,820.58
2017-07-15T03:26:43.523Z,820.57
2017-07-15T03:27:44.191Z,820.62
2017-07-15T03:28:44.835Z,820.60
2017-07-15T03:29:45.502Z,820.59
2017-07-15T03:30:46.104Z,820.64
2017-07-15T03:31:46.717Z,820.62
2017-07-15T03:32:47.379Z,820.66
2017-07-15T03:33:47.994Z,820.67
2017-07-15T03:34:48.608Z,820.67
2017-07-15T03:35:49.221Z,820.69
2017-07-15T03:36:49.838Z,820.68
2017-07-15T03:37:50.530Z,820.69
2017-07-15T03:38:51.199Z,820.69
2017-07-15T03:39:51.799Z,820.73
2017-07-15T03:40:52.415Z,820.72
2017-07-15T03:41:53.032Z,820.74
2017-07-15T03:42:53.700Z,820.68
2017-07-15T03:43:54.314Z,820.70
2017-07-15T03:44:54.931Z,820.70
2017-07-15T03:45:55.542Z,820.71
2017-07-15T03:46:56.184Z,820.74
2017-07-15T03:47:56.835Z,820.67
2017-07-15T03:48:57.481Z,820.68
2017-07-15T03:49:58.095Z,820.71
2017-07-15T03:50:58.714Z,820.71
2017-07-15T03:51:59.326Z,820.71
2017-07-15T03:52:59.992Z,820.71
2017-07-15T03:54:00.603Z,820.73
2017-07-15T03:55:01.222Z,820.69
2017-07-15T03:56:01.832Z,820.71
2017-07-15T03:57:02.452Z,820.71
2017-07-15T03:58:03.310Z,820.70
2017-07-15T03:59:03.949Z,820.69
2017-07-15T04:00:04.552Z,820.69
2017-07-15T04:01:05.162Z,820.73
2017-07-15T04:02:05.807Z,820.70
2017-07-15T04:03:06.471Z,820.67
2017-07-15T04:04:07.117Z,820.68
2017-07-15T04:05:07.737Z,820.72
2017-07-15T04:06:08.350Z,820.75
2017-07-15T04:07:08.965Z,820.76
2017-07-15T04:08:09.629Z,820.74
2017-07-15T04:09:10.268Z,820.75
2017-07-15T04:10:10.869Z,820.73
2017-07-15T04:11:11.482Z,820.71
2017-07-15T04:12:12.098Z,820.73
2017-07-15T04:13:12.795Z,820.71
2017-07-15T04:14:13.409Z,820.72
2017-07-15T04:15:14.049Z,820.75
2017-07-15T04:16:14.651Z,820.70
2017-07-15T04:17:15.291Z,820.75
2017-07-15T04:18:15.993Z,820.75
2017-07-15T04:19:16.646Z,820.75
2017-07-15T04:20:17.258Z,820.73
2017-07-15T04:21:17.899Z,820.78
2017-07-15T04:22:18.501Z,820.79
2017-07-15T04:23:19.164Z,820.78
2017-07-15T04:24:19.810Z,820.78
2017-07-15T04:25:20.426Z,820.79
2017-07-15T04:26:21.043Z,820.80
2017-07-15T04:27:21.687Z,820.81
2017-07-15T04:28:22.351Z,820.80
2017-07-15T04:29:22.967Z,820.84
2017-07-15T04:30:23.614Z,820.83
2017-07-15T04:31:24.229Z,820.83
2017-07-15T04:32:24.842Z,820.82
2017-07-15T04:33:25.507Z,820.81
2017-07-15T04:34:26.119Z,820.82
2017-07-15T04:35:26.737Z,820.84
2017-07-15T04:36:27.352Z,820.88
2017-07-15T04:37:27.965Z,820.86
2017-07-15T04:38:28.631Z,820.84
2017-07-15T04:39:29.278Z,820.86
2017-07-15T04:40:29.896Z,820.87
2017-07-15T04:41:30.551Z,820.85
2017-07-15T04:42:31.163Z,820.81
2017-07-15T04:43:31.861Z,820.82
2017-07-15T04:44:32.476Z,820.85
2017-07-15T04:45:33.089Z,820.84
2017-07-15T04:46:33.704Z,820.85
2017-07-15T04:47:34.317Z,820.85
2017-07-15T04:48:34.986Z,820.89
2017-07-15T04:49:35.601Z,820.88
2017-07-15T04:50:36.211Z,820.94
2017-07-15T04:51:36.825Z,820.91
2017-07-15T04:52:37.439Z,820.94
2017-07-15T04:53:38.126Z,820.92
2017-07-15T04:54:38.728Z,820.91
2017-07-15T04:55:39.375Z,820.94
2017-07-15T04:56:39.974Z,820.94
2017-07-15T04:57:40.587Z,820.94
2017-07-15T04:58:41.252Z,820.96
2017-07-15T04:59:41.892Z,820.97
2017-07-15T05:00:42.543Z,820.96
2017-07-15T05:01:43.141Z,820.95
2017-07-15T05:02:43.780Z,820.89
2017-07-15T05:03:44.431Z,820.90
2017-07-15T05:04:45.046Z,820.90
2017-07-15T05:05:45.660Z,820.89
2017-07-15T05:06:46.273Z,820.94
2017-07-15T05:07:46.889Z,820.93
2017-07-15T05:08:47.553Z,820.96
2017-07-15T05:09:48.207Z,820.92
2017-07-15T05:10:48.819Z,820.93
2017-07-15T05:11:49.468Z,820.96
2017-07-15T05:12:50.083Z,820.96
2017-07-15T05:13:50.750Z,820.96
2017-07-15T05:14:51.404Z,820.98
2017-07-15T05:15:52.020Z,820.99
2017-07-15T05:16:52.635Z,820.96
2017-07-15T05:17:53.249Z,820.96
2017-07-15T05:18:53.920Z,820.96
2017-07-15T05:19:54.530Z,821.00
2017-07-15T05:20:55.145Z,820.99
2017-07-15T05:21:55.764Z,820.95
2017-07-15T05:22:56.373Z,820.97
2017-07-15T05:23:57.039Z,820.96
2017-07-15T05:24:57.658Z,820.99
2017-07-15T05:25:58.267Z,821.00
2017-07-15T05:26:58.883Z,820.97
2017-07-15T05:27:59.496Z,820.97
2017-07-15T05:29:00.162Z,820.92
2017-07-15T05:30:00.776Z,820.98
2017-07-15T05:31:01.448Z,820.97
2017-07-15T05:32:02.083Z,821.02
2017-07-15T05:33:02.729Z,820.96
2017-07-15T05:34:03.398Z,820.95
2017-07-15T05:35:04.009Z,820.95
2017-07-15T05:36:04.623Z,820.97
2017-07-15T05:37:05.237Z,820.96
2017-07-15T05:38:05.850Z,820.92
2017-07-15T05:39:06.514Z,820.88
2017-07-15T05:40:07.128Z,820.92
2017-07-15T05:41:07.748Z,820.90
2017-07-15T05:42:08.360Z,820.94
2017-07-15T05:43:08.974Z,820.95
2017-07-15T05:44:09.638Z,820.93
2017-07-15T05:45:10.263Z,820.91
2017-07-15T05:46:10.872Z,820.91
2017-07-15T05:47:11.485Z,820.90
2017-07-15T05:48:12.098Z,820.87
2017-07-15T05:49:12.997Z,820.90
2017-07-15T05:50:13.646Z,820.91
2017-07-15T05:51:14.265Z,820.91
2017-07-15T05:52:14.876Z,820.91
2017-07-15T05:53:15.494Z,820.90
2017-07-15T05:54:16.108Z,820.86
2017-07-15T05:55:16.723Z,820.88
2017-07-15T05:56:17.341Z,820.89
2017-07-15T05:57:17.988Z,820.87
2017-07-15T05:58:18.591Z,820.88
2017-07-15T05:59:19.252Z,820.90
2017-07-15T06:00:19.867Z,820.88
2017-07-15T06:01:20.484Z,820.85
2017-07-15T06:02:21.099Z,820.87
2017-07-15T06:03:21.737Z,820.88
2017-07-15T06:04:22.417Z,820.87
2017-07-15T06:05:23.020Z,820.88
2017-07-15T06:06:23.636Z,820.92
2017-07-15T06:07:24.257Z,820.90
2017-07-15T06:08:24.873Z,820.90
2017-07-15T06:09:25.537Z,820.94
2017-07-15T06:10:26.190Z,820.92
2017-07-15T06:11:26.838Z,820.96
2017-07-15T06:12:27.455Z,820.97
2017-07-15T06:13:28.074Z,820.92
2017-07-15T06:14:28.747Z,820.93
2017-07-15T06:15:29.362Z,820.93
2017-07-15T06:16:29.978Z,820.93
2017-07-15T06:17:30.601Z,820.94
2017-07-15T06:18:31.215Z,820.92
2017-07-15T06:19:32.116Z,820.93
2017-07-15T06:20:32.736Z,820.90
2017-07-15T06:21:33.347Z,820.94
2017-07-15T06:22:33.963Z,820.96
2017-07-15T06:23:34.617Z,820.96
2017-07-15T06:24:35.281Z,820.97
2017-07-15T06:25:35.897Z,820.94
2017-07-15T06:26:36.514Z,820.95
2017-07-15T06:27:37.135Z,820.94
2017-07-15T06:28:37.750Z,820.99
2017-07-15T06:29:38.418Z,820.96
2017-07-15T06:30:39.035Z,820.98
2017-07-15T06:31:39.651Z,820.95
2017-07-15T06:32:40.266Z,820.96
2017-07-15T06:33:40.883Z,820.99
2017-07-15T06:34:41.553Z,820.98
2017-07-15T06:35:42.169Z,820.97
2017-07-15T06:36:42.785Z,820.97
2017-07-15T06:37:43.435Z,820.95
2017-07-15T06:38:44.053Z,820.97
2017-07-15T06:39:44.719Z,821.00
2017-07-15T06:40:45.336Z,820.99
2017-07-15T06:41:45.952Z,820.99
2017-07-15T06:42:46.570Z,820.96
2017-07-15T06:43:47.219Z,820.99
2017-07-15T06:44:47.868Z,821.02
2017-07-15T06:45:48.486Z,820.99
2017-07-15T06:46:49.102Z,820.98
2017-07-15T06:47:49.718Z,821.00
2017-07-15T06:48:50.333Z,820.98
2017-07-15T06:49:51.026Z,820.99
2017-07-15T06:50:51.630Z,821.02
2017-07-15T06:51:52.246Z,821.04
2017-07-15T06:52:52.864Z,821.02
2017-07-15T06:53:53.480Z,821.02
2017-07-15T06:54:54.147Z,821.05
2017-07-15T06:55:54.788Z,821.06
2017-07-15T06:56:55.392Z,821.05
2017-07-15T06:57:56.010Z,821.09
2017-07-15T06:58:56.625Z,821.08
2017-07-15T06:59:57.291Z,821.09
2017-07-15T07:00:57.906Z,821.10
2017-07-15T07:01:58.524Z,821.10
2017-07-15T07:02:59.147Z,821.15
2017-07-15T07:03:59.803Z,821.21
2017-07-15T07:05:00.475Z,821.09
2017-07-15T07:06:01.093Z,821.16
2017-07-15T07:07:01.711Z,821.12
2017-07-15T07:08:02.329Z,821.10
2017-07-15T07:09:02.952Z,821.14
2017-07-15T07:10:03.617Z,821.16
2017-07-15T07:11:04.236Z,821.14
2017-07-15T07:12:04.855Z,821.16
2017-07-15T07:13:05.472Z,821.21
2017-07-15T07:14:06.090Z,821.17
2017-07-15T07:15:06.759Z,821.23
2017-07-15T07:16:07.405Z,821.27
2017-07-15T07:17:08.008Z,821.27
2017-07-15T07:18:08.627Z,821.27
2017-07-15T07:19:09.246Z,821.29
2017-07-15T07:20:09.940Z,821.31
2017-07-15T07:21:10.546Z,821.30
2017-07-15T07:22:11.190Z,821.32
2017-07-15T07:23:11.825Z,821.32
2017-07-15T07:24:12.428Z,821.33
2017-07-15T07:25:13.096Z,821.33
2017-07-15T07:26:13.748Z,821.31
2017-07-15T07:27:14.366Z,821.32
2017-07-15T07:28:15.015Z,821.29
2017-07-15T07:29:15.636Z,821.33
2017-07-15T07:30:16.310Z,821.34
2017-07-15T07:31:16.924Z,821.34
2017-07-15T07:32:17.542Z,821.33
2017-07-15T07:33:18.162Z,821.38
2017-07-15T07:34:18.782Z,821.33
2017-07-15T07:35:19.451Z,821.34
2017-07-15T07:36:20.074Z,821.32
2017-07-15T07:37:20.714Z,821.34
2017-07-15T07:38:21.319Z,821.34
2017-07-15T07:39:21.942Z,821.32
2017-07-15T07:40:22.614Z,821.32
2017-07-15T07:41:23.230Z,821.34
2017-07-15T07:42:23.847Z,821.34
2017-07-15T07:43:24.465Z,821.33
2017-07-15T07:44:25.084Z,821.29
2017-07-15T07:45:25.751Z,821.30
2017-07-15T07:46:26.370Z,821.28
2017-07-15T07:47:27.025Z,821.33
2017-07-15T07:48:27.647Z,821.30
2017-07-15T07:49:28.285Z,821.33
2017-07-15T07:50:28.936Z,821.34
2017-07-15T07:51:29.555Z,821.29
2017-07-15T07:52:30.175Z,821.35
2017-07-15T07:53:30.794Z,821.34
2017-07-15T07:54:31.439Z,821.35
2017-07-15T07:55:32.098Z,821.33
2017-07-15T07:56:32.715Z,821.32
2017-07-15T07:57:33.334Z,821.34
2017-07-15T07:58:33.952Z,821.33
2017-07-15T07:59:34.571Z,821.35
2017-07-15T08:00:35.238Z,821.31
2017-07-15T08:01:35.858Z,821.31
2017-07-15T08:02:36.484Z,821.27
2017-07-15T08:03:37.096Z,821.31
2017-07-15T08:04:37.715Z,821.32
2017-07-15T08:05:38.584Z,821.34
2017-07-15T08:06:39.204Z,821.34
2017-07-15T08:07:39.822Z,821.31
2017-07-15T08:08:40.478Z,821.33
2017-07-15T08:09:41.099Z,821.35
2017-07-15T08:10:41.967Z,821.35
2017-07-15T08:11:42.587Z,821.32
2017-07-15T08:12:43.205Z,821.37
2017-07-15T08:13:43.829Z,821.32
2017-07-15T08:14:44.443Z,821.38
2017-07-15T08:15:45.146Z,821.33
2017-07-15T08:16:45.748Z,821.29
2017-07-15T08:17:46.371Z,821.32
2017-07-15T08:18:47.023Z,821.35
2017-07-15T08:19:47.641Z,821.34
2017-07-15T08:20:48.310Z,821.34
2017-07-15T08:21:48.929Z,821.33
2017-07-15T08:22:49.576Z,821.31
2017-07-15T08:23:50.181Z,821.33
2017-07-15T08:24:50.803Z,821.34
2017-07-15T08:25:51.724Z,821.37
2017-07-15T08:26:52.374Z,821.36
2017-07-15T08:27:52.994Z,821.38
2017-07-15T08:28:53.609Z,821.45
2017-07-15T08:29:54.231Z,821.41
2017-07-15T08:30:54.903Z,821.42
2017-07-15T08:31:55.521Z,821.41
2017-07-15T08:32:56.173Z,821.41
2017-07-15T08:33:56.826Z,821.39
2017-07-15T08:34:57.406Z,821.39
2017-07-15T08:35:58.077Z,821.40
2017-07-15T08:36:58.695Z,821.36
2017-07-15T08:37:59.347Z,821.35
2017-07-15T08:38:59.978Z,821.34
2017-07-15T08:40:00.614Z,821.33
2017-07-15T08:41:01.296Z,821.36
2017-07-15T08:42:01.900Z,821.33
2017-07-15T08:43:02.518Z,821.36
2017-07-15T08:44:03.139Z,821.35
2017-07-15T08:45:03.758Z,821.35
2017-07-15T08:46:04.459Z,821.32
2017-07-15T08:47:05.086Z,821.28
2017-07-15T08:48:05.693Z,821.31
2017-07-15T08:49:06.317Z,821.29
2017-07-15T08:50:06.936Z,821.31
2017-07-15T08:51:07.608Z,821.29
2017-07-15T08:52:08.229Z,821.35
2017-07-15T08:53:08.853Z,821.31
2017-07-15T08:54:09.468Z,821.33
2017-07-15T08:55:10.086Z,821.34
2017-07-15T08:56:10.762Z,821.39
2017-07-15T08:57:11.381Z,821.38
2017-07-15T08:58:12.000Z,821.38
2017-07-15T08:59:12.653Z,821.35
2017-07-15T09:00:13.273Z,821.30
2017-07-15T09:01:13.994Z,821.36
2017-07-15T09:02:14.650Z,821.40
2017-07-15T09:03:15.275Z,821.38
2017-07-15T09:04:15.895Z,821.37
2017-07-15T09:05:16.514Z,821.38
2017-07-15T09:06:17.212Z,821.39
2017-07-15T09:07:17.832Z,821.39
2017-07-15T09:08:18.485Z,821.42
2017-07-15T09:09:19.089Z,821.42
2017-07-15T09:10:19.735Z,821.39
2017-07-15T09:11:20.371Z,821.37
2017-07-15T09:12:21.024Z,821.36
2017-07-15T09:13:21.641Z,821.31
2017-07-15T09:14:22.261Z,821.31
2017-07-15T09:15:22.879Z,821.28
2017-07-15T09:16:23.549Z,821.26
2017-07-15T09:17:24.202Z,821.23
2017-07-15T09:18:24.822Z,821.26
2017-07-15T09:19:25.441Z,821.19
2017-07-15T09:20:26.088Z,821.16
2017-07-15T09:21:26.771Z,821.19
2017-07-15T09:22:27.378Z,821.22
2017-07-15T09:23:28.035Z,821.27
2017-07-15T09:24:28.687Z,821.27
2017-07-15T09:25:29.307Z,821.23
2017-07-15T09:26:30.016Z,821.20
2017-07-15T09:27:30.642Z,821.23
2017-07-15T09:28:31.262Z,821.28
2017-07-15T09:29:31.885Z,821.26
2017-07-15T09:30:32.510Z,821.24
2017-07-15T09:31:33.174Z,821.22
2017-07-15T09:32:33.818Z,821.24
2017-07-15T09:33:34.429Z,821.25
2017-07-15T09:34:35.082Z,821.27
2017-07-15T09:35:35.702Z,821.29
2017-07-15T09:36:36.371Z,821.35
2017-07-15T09:37:36.999Z,821.29
2017-07-15T09:38:37.615Z,821.32
2017-07-15T09:39:38.237Z,821.32
2017-07-15T09:40:38.855Z,821.33
2017-07-15T09:41:39.537Z,821.34
2017-07-15T09:42:40.152Z,821.34
2017-07-15T09:43:40.800Z,821.34
2017-07-15T09:44:41.407Z,821.33
2017-07-15T09:45:42.026Z,821.29
2017-07-15T09:46:42.695Z,821.33
2017-07-15T09:47:43.343Z,821.35
2017-07-15T09:48:43.952Z,821.31
2017-07-15T09:49:44.569Z,821.30
2017-07-15T09:50:45.215Z,821.35
2017-07-15T09:51:45.903Z,821.35
2017-07-15T09:52:46.558Z,821.31
2017-07-15T09:53:47.180Z,821.31
2017-07-15T09:54:47.802Z,821.26
2017-07-15T09:55:48.422Z,821.28
2017-07-15T09:56:49.092Z,821.32
2017-07-15T09:57:49.716Z,821.34
2017-07-15T09:58:50.338Z,821.35
2017-07-15T09:59:50.962Z,821.35
2017-07-15T10:00:51.622Z,821.43
2017-07-15T10:01:52.298Z,821.41
2017-07-15T10:02:52.920Z,821.43
2017-07-15T10:03:53.538Z,821.42
2017-07-15T10:04:54.159Z,821.46
2017-07-15T10:05:54.779Z,821.46
2017-07-15T10:06:55.652Z,821.52
2017-07-15T10:07:56.312Z,821.56
2017-07-15T10:08:56.930Z,821.49
2017-07-15T10:09:57.590Z,821.51
2017-07-15T10:10:58.208Z,821.48
2017-07-15T10:11:59.131Z,821.41
2017-07-15T10:12:59.753Z,821.49
2017-07-15T10:14:00.373Z,821.44
2017-07-15T10:15:00.993Z,821.43
2017-07-15T10:16:01.619Z,821.44
2017-07-15T10:17:02.287Z,821.47
2017-07-15T10:18:02.907Z,821.52
2017-07-15T10:19:03.556Z,821.49
2017-07-15T10:20:04.164Z,821.42
2017-07-15T10:21:04.810Z,821.49
2017-07-15T10:22:05.473Z,821.48
2017-07-15T10:23:06.114Z,821.37
2017-07-15T10:24:06.723Z,821.39
2017-07-15T10:25:07.345Z,821.44
2017-07-15T10:26:07.998Z,821.37
2017-07-15T10:27:08.720Z,821.37
2017-07-15T10:28:09.342Z,821.38
2017-07-15T10:29:09.963Z,821.36
2017-07-15T10:30:10.585Z,821.35
2017-07-15T10:31:11.213Z,821.34
2017-07-15T10:32:11.881Z,821.34
2017-07-15T10:33:12.503Z,821.33
2017-07-15T10:34:13.161Z,821.38
2017-07-15T10:35:13.761Z,821.37
2017-07-15T10:36:14.383Z,821.32
2017-07-15T10:37:15.058Z,821.27
2017-07-15T10:38:15.678Z,821.33
2017-07-15T10:39:16.301Z,821.33
2017-07-15T10:40:16.922Z,821.33
2017-07-15T10:41:17.544Z,821.31
2017-07-15T10:42:18.214Z,821.30
2017-07-15T10:43:18.839Z,821.35
2017-07-15T10:44:19.458Z,821.38
2017-07-15T10:45:20.087Z,821.34
2017-07-15T10:46:20.703Z,821.40
2017-07-15T10:47:21.376Z,821.37
2017-07-15T10:48:21.997Z,821.35
2017-07-15T10:49:22.621Z,821.41
2017-07-15T10:50:23.276Z,821.36
2017-07-15T10:51:23.912Z,821.33
2017-07-15T10:52:24.569Z,821.33
2017-07-15T10:53:25.192Z,821.29
2017-07-15T10:54:25.817Z,821.34
2017-07-15T10:55:26.440Z,821.28
2017-07-15T10:56:27.062Z,821.30
2017-07-15T10:57:27.767Z,821.34
2017-07-15T10:58:28.391Z,821.28
2017-07-15T10:59:29.013Z,821.27
2017-07-15T11:00:29.667Z,821.28
2017-07-15T11:01:30.289Z,821.24
2017-07-15T11:02:30.967Z,821.25
2017-07-15T11:03:31.589Z,821.34
2017-07-15T11:04:32.214Z,821.25
2017-07-15T11:05:32.834Z,821.28
2017-07-15T11:06:33.458Z,821.32
2017-07-15T11:07:34.131Z,821.37
2017-07-15T11:08:34.755Z,821.38
2017-07-15T11:09:35.378Z,821.30
2017-07-15T11:10:36.005Z,821.23
2017-07-15T11:11:36.624Z,821.30
2017-07-15T11:12:37.298Z,821.31
2017-07-15T11:13:37.955Z,821.27
2017-07-15T11:14:38.579Z,821.33
2017-07-15T11:15:39.202Z,821.29
2017-07-15T11:16:39.822Z,821.33
2017-07-15T11:17:40.523Z,821.34
2017-07-15T11:18:41.132Z,821.33
2017-07-15T11:19:41.754Z,821.29
2017-07-15T11:20:42.379Z,821.29
2017-07-15T11:21:43.001Z,821.30
2017-07-15T11:22:43.704Z,821.27
2017-07-15T11:23:44.313Z,821.37
2017-07-15T11:24:44.936Z,821.34
2017-07-15T11:25:45.556Z,821.31
2017-07-15T11:26:46.206Z,821.28
2017-07-15T11:27:46.865Z,821.30
2017-07-15T11:28:47.497Z,821.30
2017-07-15T11:29:48.153Z,821.26
2017-07-15T11:30:48.807Z,821.30
2017-07-15T11:31:49.434Z,821.38
2017-07-15T11:32:50.362Z,821.34
2017-07-15T11:33:50.995Z,821.31
2017-07-15T11:34:51.609Z,821.29
2017-07-15T11:35:52.237Z,821.35
2017-07-15T11:36:52.864Z,821.39
2017-07-15T11:37:53.532Z,821.33
2017-07-15T11:38:54.155Z,821.38
2017-07-15T11:39:54.816Z,821.29
2017-07-15T11:40:55.436Z,821.33
2017-07-15T11:41:56.059Z,821.44
2017-07-15T11:42:56.735Z,821.37
2017-07-15T11:43:57.357Z,821.40
2017-07-15T11:44:57.980Z,821.30
2017-07-15T11:45:58.603Z,821.31
2017-07-15T11:46:59.225Z,821.35
2017-07-15T11:47:59.927Z,821.38
2017-07-15T11:49:00.559Z,821.33
2017-07-15T11:50:01.195Z,821.49
2017-07-15T11:51:01.832Z,821.36
2017-07-15T11:52:02.442Z,821.45
2017-07-15T11:53:03.191Z,821.45
2017-07-15T11:54:03.805Z,821.47
2017-07-15T11:55:04.425Z,821.49
2017-07-15T11:56:05.048Z,821.42
2017-07-15T11:57:05.703Z,821.46
2017-07-15T11:58:06.358Z,821.41
2017-07-15T11:59:07.015Z,821.39
2017-07-15T12:00:07.640Z,821.46
2017-07-15T12:01:08.263Z,821.46
2017-07-15T12:02:08.885Z,821.45
2017-07-15T12:03:09.590Z,821.42
2017-07-15T12:04:10.214Z,821.42
2017-07-15T12:05:10.877Z,821.41
2017-07-15T12:06:11.496Z,821.37
2017-07-15T12:07:12.118Z,821.39
2017-07-15T12:08:12.795Z,821.45
2017-07-15T12:09:13.416Z,821.46
2017-07-15T12:10:14.040Z,821.42
2017-07-15T12:11:14.663Z,821.43
2017-07-15T12:12:15.320Z,821.39
2017-07-15T12:13:15.995Z,821.43
2017-07-15T12:14:16.620Z,821.41
2017-07-15T12:15:17.276Z,821.43
2017-07-15T12:16:17.901Z,821.44
2017-07-15T12:17:18.525Z,821.41
2017-07-15T12:18:19.205Z,821.36
2017-07-15T12:19:19.824Z,821.40
2017-07-15T12:20:20.448Z,821.28
2017-07-15T12:21:21.076Z,821.32
2017-07-15T12:22:21.697Z,821.35
2017-07-15T12:23:22.369Z,821.33
2017-07-15T12:24:22.997Z,821.28
2017-07-15T12:25:23.617Z,821.37
2017-07-15T12:26:24.242Z,821.39
2017-07-15T12:27:24.867Z,821.43
2017-07-15T12:28:25.541Z,821.32
2017-07-15T12:29:26.197Z,821.30
2017-07-15T12:30:26.847Z,821.33
2017-07-15T12:31:27.460Z,821.30
2017-07-15T12:32:28.089Z,821.32
2017-07-15T12:33:28.759Z,821.28
2017-07-15T12:34:29.384Z,821.17
2017-07-15T12:35:30.007Z,821.29
2017-07-15T12:36:30.632Z,821.25